Terminal Aerodrome Forecast
Issued by NWS

Home | Current Version | Previous Version | Graphics & Text | Print | Product List | Glossary On
Versions: 1 2 3 4 5 6 7 8 9 10 11 12 13 14 15 16 17 18 19 20 21 22 23
266
FTUS42 KMHX 192359 CCA
TAFOAJ
TAF COR
KOAJ 192359Z 2000/2024 VRB04KT 5SM -RA BKN015
      TEMPO 2001/2002 BKN006
     FM200300 00000KT P6SM BKN011
     FM200600 00000KT 3SM BR BKN009
     FM200900 VRB03KT 1SM BR BKN004
     FM201100 00000KT 1/4SM FG BKN002
     FM201300 VRB03KT 1SM BR BKN003
     FM201500 19006KT P6SM BKN012
     FM201700 19008KT P6SM SCT030
      AMD LTD TO CLD VIS AND WIND=

USA.gov is the U.S. government's official web portal to all federal, state and local government web resources and services.